sensor_id;sensor_type;location;lat;lon;timestamp;P1;durP1;ratioP1;P2;durP2;ratioP2
36827;SDS011;22766;48.042;11.192;2022-09-01T00:01:28;13.77;;;7.90;;
36827;SDS011;22766;48.042;11.192;2022-09-01T00:03:56;14.90;;;7.30;;
36827;SDS011;22766;48.042;11.192;2022-09-01T00:06:29;12.90;;;7.28;;
36827;SDS011;22766;48.042;11.192;2022-09-01T00:08:59;12.98;;;7.38;;
36827;SDS011;22766;48.042;11.192;2022-09-01T00:11:29;13.77;;;7.63;;
36827;SDS011;22766;48.042;11.192;2022-09-01T00:13:57;13.57;;;7.88;;
36827;SDS011;22766;48.042;11.192;2022-09-01T00:16:26;13.13;;;7.43;;
36827;SDS011;22766;48.042;11.192;2022-09-01T00:18:54;13.45;;;7.28;;
36827;SDS011;22766;48.042;11.192;2022-09-01T00:21:22;15.20;;;8.13;;
36827;SDS011;22766;48.042;11.192;2022-09-01T00:23:51;13.15;;;6.97;;
36827;SDS011;22766;48.042;11.192;2022-09-01T00:26:19;11.27;;;7.45;;
36827;SDS011;22766;48.042;11.192;2022-09-01T00:28:46;15.30;;;8.35;;
36827;SDS011;22766;48.042;11.192;2022-09-01T00:31:13;14.23;;;7.35;;
36827;SDS011;22766;48.042;11.192;2022-09-01T00:33:40;11.02;;;7.10;;
36827;SDS011;22766;48.042;11.192;2022-09-01T00:36:07;12.73;;;7.35;;
36827;SDS011;22766;48.042;11.192;2022-09-01T00:38:34;15.65;;;7.15;;
36827;SDS011;22766;48.042;11.192;2022-09-01T00:41:01;12.75;;;7.38;;
36827;SDS011;22766;48.042;11.192;2022-09-01T00:46:09;13.07;;;7.00;;
36827;SDS011;22766;48.042;11.192;2022-09-01T00:48:38;11.85;;;6.22;;
36827;SDS011;22766;48.042;11.192;2022-09-01T00:51:08;10.70;;;6.80;;
36827;SDS011;22766;48.042;11.192;2022-09-01T00:53:36;12.18;;;6.75;;
36827;SDS011;22766;48.042;11.192;2022-09-01T00:56:06;12.38;;;7.45;;
36827;SDS011;22766;48.042;11.192;2022-09-01T00:58:34;12.18;;;7.22;;
36827;SDS011;22766;48.042;11.192;2022-09-01T01:01:04;12.70;;;7.00;;
36827;SDS011;22766;48.042;11.192;2022-09-01T01:03:32;14.55;;;7.00;;
36827;SDS011;22766;48.042;11.192;2022-09-01T01:06:00;12.90;;;7.43;;
36827;SDS011;22766;48.042;11.192;2022-09-01T01:11:18;14.10;;;8.02;;
36827;SDS011;22766;48.042;11.192;2022-09-01T01:13:45;13.10;;;7.55;;
36827;SDS011;22766;48.042;11.192;2022-09-01T01:16:14;12.32;;;7.03;;
36827;SDS011;22766;48.042;11.192;2022-09-01T01:18:41;14.13;;;7.28;;
36827;SDS011;22766;48.042;11.192;2022-09-01T01:21:10;11.60;;;6.47;;
36827;SDS011;22766;48.042;11.192;2022-09-01T01:26:52;12.18;;;7.35;;
36827;SDS011;22766;48.042;11.192;2022-09-01T01:29:35;14.80;;;7.63;;
36827;SDS011;22766;48.042;11.192;2022-09-01T01:32:06;11.07;;;7.15;;
36827;SDS011;22766;48.042;11.192;2022-09-01T01:34:38;14.60;;;8.85;;
36827;SDS011;22766;48.042;11.192;2022-09-01T01:37:09;14.70;;;7.38;;
36827;SDS011;22766;48.042;11.192;2022-09-01T01:39:40;11.57;;;7.10;;
36827;SDS011;22766;48.042;11.192;2022-09-01T01:42:09;10.63;;;6.40;;
36827;SDS011;22766;48.042;11.192;2022-09-01T01:44:37;12.40;;;7.15;;
36827;SDS011;22766;48.042;11.192;2022-09-01T01:47:06;13.75;;;7.88;;
36827;SDS011;22766;48.042;11.192;2022-09-01T01:49:39;13.50;;;7.50;;
36827;SDS011;22766;48.042;11.192;2022-09-01T01:52:10;12.43;;;7.32;;
36827;SDS011;22766;48.042;11.192;2022-09-01T01:54:43;12.90;;;7.03;;
36827;SDS011;22766;48.042;11.192;2022-09-01T01:57:12;12.57;;;7.93;;
36827;SDS011;22766;48.042;11.192;2022-09-01T01:59:43;12.45;;;6.80;;
36827;SDS011;22766;48.042;11.192;2022-09-01T02:02:10;11.65;;;6.43;;
36827;SDS011;22766;48.042;11.192;2022-09-01T02:04:38;12.23;;;7.13;;
36827;SDS011;22766;48.042;11.192;2022-09-01T02:07:09;12.00;;;6.80;;
36827;SDS011;22766;48.042;11.192;2022-09-01T02:09:38;11.88;;;7.03;;
36827;SDS011;22766;48.042;11.192;2022-09-01T02:12:09;11.40;;;6.75;;
36827;SDS011;22766;48.042;11.192;2022-09-01T02:14:40;11.90;;;7.05;;
36827;SDS011;22766;48.042;11.192;2022-09-01T02:17:07;13.90;;;7.30;;
36827;SDS011;22766;48.042;11.192;2022-09-01T02:19:34;12.30;;;7.30;;
36827;SDS011;22766;48.042;11.192;2022-09-01T02:22:07;12.98;;;7.65;;
36827;SDS011;22766;48.042;11.192;2022-09-01T02:24:36;15.30;;;8.55;;
36827;SDS011;22766;48.042;11.192;2022-09-01T02:27:11;14.32;;;8.20;;
36827;SDS011;22766;48.042;11.192;2022-09-01T02:29:40;12.27;;;7.28;;
36827;SDS011;22766;48.042;11.192;2022-09-01T02:32:09;14.55;;;8.00;;
36827;SDS011;22766;48.042;11.192;2022-09-01T02:34:36;13.02;;;7.63;;
36827;SDS011;22766;48.042;11.192;2022-09-01T02:37:05;13.65;;;7.43;;
36827;SDS011;22766;48.042;11.192;2022-09-01T02:39:31;12.43;;;7.22;;
36827;SDS011;22766;48.042;11.192;2022-09-01T02:41:59;14.05;;;8.18;;
36827;SDS011;22766;48.042;11.192;2022-09-01T02:44:27;12.65;;;7.20;;
36827;SDS011;22766;48.042;11.192;2022-09-01T02:46:58;13.57;;;7.28;;
36827;SDS011;22766;48.042;11.192;2022-09-01T02:49:26;16.60;;;8.95;;
36827;SDS011;22766;48.042;11.192;2022-09-01T02:51:57;14.45;;;8.85;;
36827;SDS011;22766;48.042;11.192;2022-09-01T02:56:56;14.80;;;7.85;;
36827;SDS011;22766;48.042;11.192;2022-09-01T02:59:24;14.48;;;8.18;;
36827;SDS011;22766;48.042;11.192;2022-09-01T03:01:56;15.77;;;8.98;;
36827;SDS011;22766;48.042;11.192;2022-09-01T03:04:23;14.65;;;8.55;;
36827;SDS011;22766;48.042;11.192;2022-09-01T03:06:52;15.15;;;8.48;;
36827;SDS011;22766;48.042;11.192;2022-09-01T03:09:20;15.57;;;8.98;;
36827;SDS011;22766;48.042;11.192;2022-09-01T03:11:49;14.63;;;8.60;;
36827;SDS011;22766;48.042;11.192;2022-09-01T03:14:18;17.15;;;8.93;;
36827;SDS011;22766;48.042;11.192;2022-09-01T03:16:46;14.40;;;8.20;;
36827;SDS011;22766;48.042;11.192;2022-09-01T03:19:13;14.20;;;8.65;;
36827;SDS011;22766;48.042;11.192;2022-09-01T03:21:43;15.90;;;8.02;;
36827;SDS011;22766;48.042;11.192;2022-09-01T03:24:14;14.68;;;8.10;;
36827;SDS011;22766;48.042;11.192;2022-09-01T03:26:43;14.52;;;8.85;;
36827;SDS011;22766;48.042;11.192;2022-09-01T03:29:15;18.80;;;9.27;;
36827;SDS011;22766;48.042;11.192;2022-09-01T03:31:43;13.95;;;7.88;;
36827;SDS011;22766;48.042;11.192;2022-09-01T03:34:10;17.02;;;9.02;;
36827;SDS011;22766;48.042;11.192;2022-09-01T03:36:45;14.80;;;8.55;;
36827;SDS011;22766;48.042;11.192;2022-09-01T03:39:25;16.63;;;8.30;;
36827;SDS011;22766;48.042;11.192;2022-09-01T03:41:55;16.00;;;9.48;;
36827;SDS011;22766;48.042;11.192;2022-09-01T03:44:24;17.20;;;9.30;;
36827;SDS011;22766;48.042;11.192;2022-09-01T03:46:51;17.30;;;9.98;;
36827;SDS011;22766;48.042;11.192;2022-09-01T03:49:19;17.10;;;8.93;;
36827;SDS011;22766;48.042;11.192;2022-09-01T03:51:54;15.88;;;8.40;;
36827;SDS011;22766;48.042;11.192;2022-09-01T03:54:22;15.60;;;8.80;;
36827;SDS011;22766;48.042;11.192;2022-09-01T03:56:54;16.92;;;9.25;;
36827;SDS011;22766;48.042;11.192;2022-09-01T03:59:22;20.48;;;9.43;;
36827;SDS011;22766;48.042;11.192;2022-09-01T04:01:50;19.10;;;9.68;;
36827;SDS011;22766;48.042;11.192;2022-09-01T04:04:18;18.48;;;9.80;;
36827;SDS011;22766;48.042;11.192;2022-09-01T04:06:45;21.67;;;9.60;;
36827;SDS011;22766;48.042;11.192;2022-09-01T04:09:12;20.73;;;9.95;;
36827;SDS011;22766;48.042;11.192;2022-09-01T04:11:42;16.00;;;9.10;;
36827;SDS011;22766;48.042;11.192;2022-09-01T04:14:13;16.83;;;8.93;;
36827;SDS011;22766;48.042;11.192;2022-09-01T04:16:42;19.35;;;10.82;;
36827;SDS011;22766;48.042;11.192;2022-09-01T04:19:28;20.27;;;9.25;;
36827;SDS011;22766;48.042;11.192;2022-09-01T04:22:02;15.20;;;8.20;;
36827;SDS011;22766;48.042;11.192;2022-09-01T04:24:37;17.52;;;9.48;;
36827;SDS011;22766;48.042;11.192;2022-09-01T04:27:11;16.40;;;8.95;;
36827;SDS011;22766;48.042;11.192;2022-09-01T04:29:40;18.17;;;9.15;;
36827;SDS011;22766;48.042;11.192;2022-09-01T04:32:08;14.80;;;8.65;;
36827;SDS011;22766;48.042;11.192;2022-09-01T04:34:41;16.60;;;9.13;;
36827;SDS011;22766;48.042;11.192;2022-09-01T04:37:14;18.00;;;8.55;;
36827;SDS011;22766;48.042;11.192;2022-09-01T04:39:50;19.65;;;9.15;;
36827;SDS011;22766;48.042;11.192;2022-09-01T04:42:23;19.23;;;9.45;;
36827;SDS011;22766;48.042;11.192;2022-09-01T04:44:56;18.30;;;8.38;;
36827;SDS011;22766;48.042;11.192;2022-09-01T04:47:28;17.52;;;8.80;;
36827;SDS011;22766;48.042;11.192;2022-09-01T04:50:02;19.02;;;8.70;;
36827;SDS011;22766;48.042;11.192;2022-09-01T04:52:38;16.25;;;8.98;;
36827;SDS011;22766;48.042;11.192;2022-09-01T04:55:17;19.70;;;10.07;;
36827;SDS011;22766;48.042;11.192;2022-09-01T04:57:45;20.35;;;10.30;;
36827;SDS011;22766;48.042;11.192;2022-09-01T05:00:14;19.13;;;9.77;;
36827;SDS011;22766;48.042;11.192;2022-09-01T05:02:49;14.55;;;8.90;;
36827;SDS011;22766;48.042;11.192;2022-09-01T05:05:20;16.40;;;8.57;;
36827;SDS011;22766;48.042;11.192;2022-09-01T05:07:48;18.77;;;8.63;;
36827;SDS011;22766;48.042;11.192;2022-09-01T05:10:21;17.40;;;8.23;;
36827;SDS011;22766;48.042;11.192;2022-09-01T05:13:12;15.68;;;8.20;;
36827;SDS011;22766;48.042;11.192;2022-09-01T05:15:44;16.60;;;9.43;;
36827;SDS011;22766;48.042;11.192;2022-09-01T05:18:14;16.10;;;9.23;;
36827;SDS011;22766;48.042;11.192;2022-09-01T05:20:49;16.75;;;9.13;;
36827;SDS011;22766;48.042;11.192;2022-09-01T05:23:17;18.25;;;9.50;;
36827;SDS011;22766;48.042;11.192;2022-09-01T05:25:46;14.85;;;8.75;;
36827;SDS011;22766;48.042;11.192;2022-09-01T05:28:15;16.63;;;8.88;;
36827;SDS011;22766;48.042;11.192;2022-09-01T05:30:47;15.82;;;9.00;;
36827;SDS011;22766;48.042;11.192;2022-09-01T05:33:14;17.65;;;9.13;;
36827;SDS011;22766;48.042;11.192;2022-09-01T05:35:54;17.30;;;8.98;;
36827;SDS011;22766;48.042;11.192;2022-09-01T05:38:26;14.80;;;8.32;;
36827;SDS011;22766;48.042;11.192;2022-09-01T05:40:57;16.33;;;8.63;;
36827;SDS011;22766;48.042;11.192;2022-09-01T05:43:30;16.27;;;9.25;;
36827;SDS011;22766;48.042;11.192;2022-09-01T05:45:58;14.40;;;7.80;;
36827;SDS011;22766;48.042;11.192;2022-09-01T05:48:33;14.77;;;8.23;;
36827;SDS011;22766;48.042;11.192;2022-09-01T05:51:06;14.95;;;7.93;;
36827;SDS011;22766;48.042;11.192;2022-09-01T05:53:55;12.30;;;7.18;;
36827;SDS011;22766;48.042;11.192;2022-09-01T05:56:27;13.23;;;7.35;;
36827;SDS011;22766;48.042;11.192;2022-09-01T05:58:56;14.27;;;6.95;;
36827;SDS011;22766;48.042;11.192;2022-09-01T06:01:46;10.13;;;6.53;;
36827;SDS011;22766;48.042;11.192;2022-09-01T06:04:16;15.13;;;6.63;;
36827;SDS011;22766;48.042;11.192;2022-09-01T06:06:45;10.00;;;6.40;;
36827;SDS011;22766;48.042;11.192;2022-09-01T06:09:35;12.75;;;6.68;;
36827;SDS011;22766;48.042;11.192;2022-09-01T06:12:07;9.90;;;5.47;;
36827;SDS011;22766;48.042;11.192;2022-09-01T06:14:44;9.88;;;5.85;;
36827;SDS011;22766;48.042;11.192;2022-09-01T06:17:14;7.97;;;4.72;;
36827;SDS011;22766;48.042;11.192;2022-09-01T06:19:42;7.53;;;4.35;;
36827;SDS011;22766;48.042;11.192;2022-09-01T06:22:09;8.00;;;5.13;;
36827;SDS011;22766;48.042;11.192;2022-09-01T06:24:37;9.88;;;5.13;;
36827;SDS011;22766;48.042;11.192;2022-09-01T06:29:36;8.70;;;5.07;;
36827;SDS011;22766;48.042;11.192;2022-09-01T06:32:06;8.77;;;5.15;;
36827;SDS011;22766;48.042;11.192;2022-09-01T06:34:39;10.20;;;4.97;;
36827;SDS011;22766;48.042;11.192;2022-09-01T06:37:10;8.10;;;5.10;;
36827;SDS011;22766;48.042;11.192;2022-09-01T06:39:41;8.45;;;4.78;;
36827;SDS011;22766;48.042;11.192;2022-09-01T06:42:09;7.80;;;5.60;;
36827;SDS011;22766;48.042;11.192;2022-09-01T06:44:46;7.55;;;4.47;;
36827;SDS011;22766;48.042;11.192;2022-09-01T06:47:14;5.50;;;3.80;;
36827;SDS011;22766;48.042;11.192;2022-09-01T06:49:41;5.60;;;3.75;;
36827;SDS011;22766;48.042;11.192;2022-09-01T06:52:13;8.00;;;4.60;;
36827;SDS011;22766;48.042;11.192;2022-09-01T06:54:41;6.93;;;4.88;;
36827;SDS011;22766;48.042;11.192;2022-09-01T06:57:10;6.28;;;4.22;;
36827;SDS011;22766;48.042;11.192;2022-09-01T06:59:56;6.55;;;3.55;;
36827;SDS011;22766;48.042;11.192;2022-09-01T07:02:23;6.07;;;4.03;;
36827;SDS011;22766;48.042;11.192;2022-09-01T07:05:15;6.88;;;4.32;;
36827;SDS011;22766;48.042;11.192;2022-09-01T07:08:07;6.03;;;3.97;;
36827;SDS011;22766;48.042;11.192;2022-09-01T07:11:00;7.28;;;3.55;;
36827;SDS011;22766;48.042;11.192;2022-09-01T07:13:46;7.40;;;4.60;;
36827;SDS011;22766;48.042;11.192;2022-09-01T07:16:35;6.45;;;4.18;;
36827;SDS011;22766;48.042;11.192;2022-09-01T07:19:19;8.38;;;3.95;;
36827;SDS011;22766;48.042;11.192;2022-09-01T07:21:56;5.57;;;3.45;;
36827;SDS011;22766;48.042;11.192;2022-09-01T07:24:46;5.63;;;3.83;;
36827;SDS011;22766;48.042;11.192;2022-09-01T07:27:53;9.43;;;3.55;;
36827;SDS011;22766;48.042;11.192;2022-09-01T07:30:26;6.65;;;4.55;;
36827;SDS011;22766;48.042;11.192;2022-09-01T07:32:52;8.90;;;4.35;;
36827;SDS011;22766;48.042;11.192;2022-09-01T07:35:22;10.13;;;4.45;;
36827;SDS011;22766;48.042;11.192;2022-09-01T07:37:50;6.18;;;3.90;;
36827;SDS011;22766;48.042;11.192;2022-09-01T07:40:39;6.18;;;4.05;;
36827;SDS011;22766;48.042;11.192;2022-09-01T07:43:46;7.25;;;4.05;;
36827;SDS011;22766;48.042;11.192;2022-09-01T07:46:36;7.32;;;4.32;;
36827;SDS011;22766;48.042;11.192;2022-09-01T07:49:14;6.10;;;3.97;;
36827;SDS011;22766;48.042;11.192;2022-09-01T07:52:01;7.30;;;4.82;;
36827;SDS011;22766;48.042;11.192;2022-09-01T07:54:30;9.32;;;4.50;;
36827;SDS011;22766;48.042;11.192;2022-09-01T07:56:56;7.60;;;4.75;;
36827;SDS011;22766;48.042;11.192;2022-09-01T07:59:23;8.40;;;4.18;;
36827;SDS011;22766;48.042;11.192;2022-09-01T08:02:02;6.93;;;4.45;;
36827;SDS011;22766;48.042;11.192;2022-09-01T08:04:31;7.90;;;4.78;;
36827;SDS011;22766;48.042;11.192;2022-09-01T08:06:59;6.97;;;4.30;;
36827;SDS011;22766;48.042;11.192;2022-09-01T08:09:27;7.40;;;4.85;;
36827;SDS011;22766;48.042;11.192;2022-09-01T08:12:05;7.32;;;4.60;;
36827;SDS011;22766;48.042;11.192;2022-09-01T08:14:43;4.75;;;3.83;;
36827;SDS011;22766;48.042;11.192;2022-09-01T08:17:11;6.38;;;4.18;;
36827;SDS011;22766;48.042;11.192;2022-09-01T08:19:43;7.53;;;4.32;;
36827;SDS011;22766;48.042;11.192;2022-09-01T08:22:19;7.05;;;3.80;;
36827;SDS011;22766;48.042;11.192;2022-09-01T08:25:00;5.45;;;3.95;;
36827;SDS011;22766;48.042;11.192;2022-09-01T08:27:27;4.70;;;3.15;;
36827;SDS011;22766;48.042;11.192;2022-09-01T08:29:54;5.22;;;3.80;;
36827;SDS011;22766;48.042;11.192;2022-09-01T08:32:21;5.40;;;3.53;;
36827;SDS011;22766;48.042;11.192;2022-09-01T08:34:48;5.65;;;3.60;;
36827;SDS011;22766;48.042;11.192;2022-09-01T08:37:15;5.95;;;4.13;;
36827;SDS011;22766;48.042;11.192;2022-09-01T08:39:41;5.95;;;3.53;;
36827;SDS011;22766;48.042;11.192;2022-09-01T08:45:32;9.05;;;3.63;;
36827;SDS011;22766;48.042;11.192;2022-09-01T08:48:27;4.75;;;3.45;;
36827;SDS011;22766;48.042;11.192;2022-09-01T08:51:38;4.78;;;3.17;;
36827;SDS011;22766;48.042;11.192;2022-09-01T08:54:17;4.15;;;2.80;;
36827;SDS011;22766;48.042;11.192;2022-09-01T08:56:57;3.65;;;2.92;;
36827;SDS011;22766;48.042;11.192;2022-09-01T08:59:47;6.53;;;3.33;;
36827;SDS011;22766;48.042;11.192;2022-09-01T09:02:50;3.67;;;2.63;;
36827;SDS011;22766;48.042;11.192;2022-09-01T09:14:02;3.15;;;2.50;;
36827;SDS011;22766;48.042;11.192;2022-09-01T09:16:38;3.78;;;2.83;;
36827;SDS011;22766;48.042;11.192;2022-09-01T09:21:51;3.80;;;2.45;;
36827;SDS011;22766;48.042;11.192;2022-09-01T09:29:54;4.20;;;2.75;;
36827;SDS011;22766;48.042;11.192;2022-09-01T09:32:49;3.42;;;2.65;;
36827;SDS011;22766;48.042;11.192;2022-09-01T09:46:26;3.58;;;2.70;;
36827;SDS011;22766;48.042;11.192;2022-09-01T09:54:36;4.03;;;2.47;;
36827;SDS011;22766;48.042;11.192;2022-09-01T09:59:41;3.08;;;2.53;;
36827;SDS011;22766;48.042;11.192;2022-09-01T10:05:00;8.98;;;2.20;;
36827;SDS011;22766;48.042;11.192;2022-09-01T10:07:48;4.60;;;2.47;;
36827;SDS011;22766;48.042;11.192;2022-09-01T10:10:58;4.18;;;2.58;;
36827;SDS011;22766;48.042;11.192;2022-09-01T10:13:15;2.97;;;2.20;;
36827;SDS011;22766;48.042;11.192;2022-09-01T10:15:51;4.03;;;2.22;;
36827;SDS011;22766;48.042;11.192;2022-09-01T10:18:31;2.95;;;2.50;;
36827;SDS011;22766;48.042;11.192;2022-09-01T10:21:17;3.05;;;2.08;;
36827;SDS011;22766;48.042;11.192;2022-09-01T10:23:49;3.53;;;2.53;;
36827;SDS011;22766;48.042;11.192;2022-09-01T10:26:28;3.38;;;2.17;;
36827;SDS011;22766;48.042;11.192;2022-09-01T10:31:32;4.70;;;2.53;;
36827;SDS011;22766;48.042;11.192;2022-09-01T10:34:03;2.33;;;1.85;;
36827;SDS011;22766;48.042;11.192;2022-09-01T10:36:31;4.00;;;2.03;;
36827;SDS011;22766;48.042;11.192;2022-09-01T10:39:01;3.58;;;2.33;;
36827;SDS011;22766;48.042;11.192;2022-09-01T10:47:11;4.05;;;2.45;;
36827;SDS011;22766;48.042;11.192;2022-09-01T10:49:56;3.53;;;2.60;;
36827;SDS011;22766;48.042;11.192;2022-09-01T10:55:28;3.78;;;2.03;;
36827;SDS011;22766;48.042;11.192;2022-09-01T11:01:39;5.90;;;2.28;;
36827;SDS011;22766;48.042;11.192;2022-09-01T11:07:03;3.50;;;2.28;;
36827;SDS011;22766;48.042;11.192;2022-09-01T11:09:40;2.75;;;1.80;;
36827;SDS011;22766;48.042;11.192;2022-09-01T11:28:07;2.28;;;1.52;;
36827;SDS011;22766;48.042;11.192;2022-09-01T11:34:08;5.13;;;2.05;;
36827;SDS011;22766;48.042;11.192;2022-09-01T11:36:32;3.40;;;2.35;;
36827;SDS011;22766;48.042;11.192;2022-09-01T11:44:41;5.15;;;2.90;;
36827;SDS011;22766;48.042;11.192;2022-09-01T11:52:27;2.10;;;1.45;;
36827;SDS011;22766;48.042;11.192;2022-09-01T11:54:55;2.47;;;1.65;;
36827;SDS011;22766;48.042;11.192;2022-09-01T11:57:31;3.20;;;1.77;;
36827;SDS011;22766;48.042;11.192;2022-09-01T12:00:02;3.08;;;1.67;;
36827;SDS011;22766;48.042;11.192;2022-09-01T12:02:46;2.00;;;1.63;;
36827;SDS011;22766;48.042;11.192;2022-09-01T12:05:35;4.43;;;1.90;;
36827;SDS011;22766;48.042;11.192;2022-09-01T12:08:12;2.45;;;1.35;;
36827;SDS011;22766;48.042;11.192;2022-09-01T12:10:49;2.75;;;1.60;;
36827;SDS011;22766;48.042;11.192;2022-09-01T12:15:54;3.15;;;1.65;;
36827;SDS011;22766;48.042;11.192;2022-09-01T12:18:45;1.13;;;0.90;;
36827;SDS011;22766;48.042;11.192;2022-09-01T12:21:18;3.63;;;1.23;;
36827;SDS011;22766;48.042;11.192;2022-09-01T12:23:48;2.45;;;1.20;;
36827;SDS011;22766;48.042;11.192;2022-09-01T12:26:17;4.18;;;1.33;;
36827;SDS011;22766;48.042;11.192;2022-09-01T12:28:48;1.75;;;1.02;;
36827;SDS011;22766;48.042;11.192;2022-09-01T12:31:18;2.30;;;0.90;;
36827;SDS011;22766;48.042;11.192;2022-09-01T12:33:48;1.52;;;0.93;;
36827;SDS011;22766;48.042;11.192;2022-09-01T12:38:47;1.67;;;1.10;;
36827;SDS011;22766;48.042;11.192;2022-09-01T12:43:50;1.33;;;1.00;;
36827;SDS011;22766;48.042;11.192;2022-09-01T12:46:42;1.42;;;1.05;;
36827;SDS011;22766;48.042;11.192;2022-09-01T12:49:17;2.63;;;1.30;;
36827;SDS011;22766;48.042;11.192;2022-09-01T12:51:47;1.20;;;0.90;;
36827;SDS011;22766;48.042;11.192;2022-09-01T12:54:14;1.30;;;1.00;;
36827;SDS011;22766;48.042;11.192;2022-09-01T12:56:45;1.55;;;0.90;;
36827;SDS011;22766;48.042;11.192;2022-09-01T12:59:22;1.48;;;0.90;;
36827;SDS011;22766;48.042;11.192;2022-09-01T13:04:52;0.80;;;0.68;;
36827;SDS011;22766;48.042;11.192;2022-09-01T13:07:19;2.65;;;1.02;;
36827;SDS011;22766;48.042;11.192;2022-09-01T13:09:46;1.10;;;0.65;;
36827;SDS011;22766;48.042;11.192;2022-09-01T13:12:16;1.73;;;1.00;;
36827;SDS011;22766;48.042;11.192;2022-09-01T13:17:13;2.55;;;1.20;;
36827;SDS011;22766;48.042;11.192;2022-09-01T13:19:40;0.98;;;0.82;;
36827;SDS011;22766;48.042;11.192;2022-09-01T13:22:07;2.30;;;1.15;;
36827;SDS011;22766;48.042;11.192;2022-09-01T13:24:34;0.98;;;0.80;;
36827;SDS011;22766;48.042;11.192;2022-09-01T13:27:00;2.05;;;0.80;;
36827;SDS011;22766;48.042;11.192;2022-09-01T13:29:47;1.88;;;1.10;;
36827;SDS011;22766;48.042;11.192;2022-09-01T13:32:15;1.38;;;0.73;;
36827;SDS011;22766;48.042;11.192;2022-09-01T13:34:45;1.27;;;0.75;;
36827;SDS011;22766;48.042;11.192;2022-09-01T13:37:12;0.90;;;0.68;;
36827;SDS011;22766;48.042;11.192;2022-09-01T13:39:39;2.67;;;0.90;;
36827;SDS011;22766;48.042;11.192;2022-09-01T13:42:06;2.00;;;0.90;;
36827;SDS011;22766;48.042;11.192;2022-09-01T13:44:33;2.28;;;0.80;;
36827;SDS011;22766;48.042;11.192;2022-09-01T13:47:00;1.23;;;0.90;;
36827;SDS011;22766;48.042;11.192;2022-09-01T13:49:47;1.98;;;1.08;;
36827;SDS011;22766;48.042;11.192;2022-09-01T13:52:34;0.70;;;0.70;;
36827;SDS011;22766;48.042;11.192;2022-09-01T13:55:01;1.92;;;0.98;;
36827;SDS011;22766;48.042;11.192;2022-09-01T13:57:27;1.63;;;1.00;;
36827;SDS011;22766;48.042;11.192;2022-09-01T14:00:02;2.58;;;0.70;;
36827;SDS011;22766;48.042;11.192;2022-09-01T14:02:46;1.45;;;0.80;;
36827;SDS011;22766;48.042;11.192;2022-09-01T14:05:16;3.30;;;1.02;;
36827;SDS011;22766;48.042;11.192;2022-09-01T14:07:44;4.68;;;0.90;;
36827;SDS011;22766;48.042;11.192;2022-09-01T14:10:11;1.77;;;0.90;;
36827;SDS011;22766;48.042;11.192;2022-09-01T14:12:40;1.50;;;0.63;;
36827;SDS011;22766;48.042;11.192;2022-09-01T14:15:08;1.40;;;1.02;;
36827;SDS011;22766;48.042;11.192;2022-09-01T14:17:41;1.95;;;1.02;;
36827;SDS011;22766;48.042;11.192;2022-09-01T14:20:10;1.67;;;0.90;;
36827;SDS011;22766;48.042;11.192;2022-09-01T14:22:43;1.75;;;0.80;;
36827;SDS011;22766;48.042;11.192;2022-09-01T14:25:12;0.98;;;0.85;;
36827;SDS011;22766;48.042;11.192;2022-09-01T14:27:40;3.60;;;0.80;;
36827;SDS011;22766;48.042;11.192;2022-09-01T14:30:11;5.95;;;1.15;;
36827;SDS011;22766;48.042;11.192;2022-09-01T14:32:44;1.67;;;0.98;;
36827;SDS011;22766;48.042;11.192;2022-09-01T14:35:13;0.85;;;0.80;;
36827;SDS011;22766;48.042;11.192;2022-09-01T14:37:42;1.20;;;1.10;;
36827;SDS011;22766;48.042;11.192;2022-09-01T14:40:12;1.55;;;0.80;;
36827;SDS011;22766;48.042;11.192;2022-09-01T14:42:44;2.00;;;0.98;;
36827;SDS011;22766;48.042;11.192;2022-09-01T14:45:16;2.05;;;0.93;;
36827;SDS011;22766;48.042;11.192;2022-09-01T14:47:45;1.38;;;0.70;;
36827;SDS011;22766;48.042;11.192;2022-09-01T14:50:14;2.38;;;0.77;;
36827;SDS011;22766;48.042;11.192;2022-09-01T14:52:48;1.95;;;0.90;;
36827;SDS011;22766;48.042;11.192;2022-09-01T14:55:20;2.88;;;1.05;;
36827;SDS011;22766;48.042;11.192;2022-09-01T14:57:49;3.65;;;1.00;;
36827;SDS011;22766;48.042;11.192;2022-09-01T15:00:16;1.30;;;0.77;;
36827;SDS011;22766;48.042;11.192;2022-09-01T15:02:44;0.85;;;0.60;;
36827;SDS011;22766;48.042;11.192;2022-09-01T15:05:11;1.08;;;0.68;;
36827;SDS011;22766;48.042;11.192;2022-09-01T15:07:39;1.60;;;0.68;;
36827;SDS011;22766;48.042;11.192;2022-09-01T15:10:08;1.20;;;0.70;;
36827;SDS011;22766;48.042;11.192;2022-09-01T15:12:41;1.38;;;0.80;;
36827;SDS011;22766;48.042;11.192;2022-09-01T15:15:08;0.95;;;0.73;;
36827;SDS011;22766;48.042;11.192;2022-09-01T15:17:35;1.75;;;0.70;;
36827;SDS011;22766;48.042;11.192;2022-09-01T15:20:02;3.20;;;0.98;;
36827;SDS011;22766;48.042;11.192;2022-09-01T15:22:49;2.45;;;0.80;;
36827;SDS011;22766;48.042;11.192;2022-09-01T15:25:17;1.70;;;0.88;;
36827;SDS011;22766;48.042;11.192;2022-09-01T15:27:44;1.13;;;0.70;;
36827;SDS011;22766;48.042;11.192;2022-09-01T15:30:12;1.63;;;0.75;;
36827;SDS011;22766;48.042;11.192;2022-09-01T15:32:43;1.50;;;0.70;;
36827;SDS011;22766;48.042;11.192;2022-09-01T15:35:11;1.33;;;0.85;;
36827;SDS011;22766;48.042;11.192;2022-09-01T15:37:39;1.25;;;0.77;;
36827;SDS011;22766;48.042;11.192;2022-09-01T15:40:07;1.85;;;1.00;;
36827;SDS011;22766;48.042;11.192;2022-09-01T15:42:35;1.25;;;0.70;;
36827;SDS011;22766;48.042;11.192;2022-09-01T15:45:04;4.65;;;0.80;;
36827;SDS011;22766;48.042;11.192;2022-09-01T15:47:33;1.38;;;0.80;;
36827;SDS011;22766;48.042;11.192;2022-09-01T15:50:02;2.67;;;0.70;;
36827;SDS011;22766;48.042;11.192;2022-09-01T15:52:32;1.63;;;0.95;;
36827;SDS011;22766;48.042;11.192;2022-09-01T15:55:01;1.65;;;0.70;;
36827;SDS011;22766;48.042;11.192;2022-09-01T15:57:28;1.30;;;0.80;;
36827;SDS011;22766;48.042;11.192;2022-09-01T15:59:55;2.15;;;0.70;;
36827;SDS011;22766;48.042;11.192;2022-09-01T16:02:23;0.95;;;0.70;;
36827;SDS011;22766;48.042;11.192;2022-09-01T16:04:52;1.67;;;0.80;;
36827;SDS011;22766;48.042;11.192;2022-09-01T16:07:24;2.67;;;1.00;;
36827;SDS011;22766;48.042;11.192;2022-09-01T16:09:51;1.88;;;0.98;;
36827;SDS011;22766;48.042;11.192;2022-09-01T16:12:24;0.95;;;0.88;;
36827;SDS011;22766;48.042;11.192;2022-09-01T16:14:52;1.63;;;0.80;;
36827;SDS011;22766;48.042;11.192;2022-09-01T16:20:27;1.92;;;0.80;;
36827;SDS011;22766;48.042;11.192;2022-09-01T16:23:11;2.25;;;0.70;;
36827;SDS011;22766;48.042;11.192;2022-09-01T16:25:44;1.38;;;0.98;;
36827;SDS011;22766;48.042;11.192;2022-09-01T16:30:58;1.90;;;0.70;;
36827;SDS011;22766;48.042;11.192;2022-09-01T16:33:31;3.15;;;0.75;;
36827;SDS011;22766;48.042;11.192;2022-09-01T16:36:02;0.73;;;0.60;;
36827;SDS011;22766;48.042;11.192;2022-09-01T16:38:34;1.20;;;0.75;;
36827;SDS011;22766;48.042;11.192;2022-09-01T16:44:22;1.00;;;0.50;;
36827;SDS011;22766;48.042;11.192;2022-09-01T16:47:04;1.15;;;0.68;;
36827;SDS011;22766;48.042;11.192;2022-09-01T16:52:23;1.15;;;0.70;;
36827;SDS011;22766;48.042;11.192;2022-09-01T16:55:17;1.20;;;0.70;;
36827;SDS011;22766;48.042;11.192;2022-09-01T16:57:48;1.47;;;0.87;;
36827;SDS011;22766;48.042;11.192;2022-09-01T17:00:24;3.17;;;1.10;;
36827;SDS011;22766;48.042;11.192;2022-09-01T17:03:06;2.28;;;1.20;;
36827;SDS011;22766;48.042;11.192;2022-09-01T17:05:47;1.58;;;0.70;;
36827;SDS011;22766;48.042;11.192;2022-09-01T17:08:24;1.35;;;0.70;;